createdAt,value
2022-08-05T00:04:19.587Z,22.35
2022-08-05T00:09:21.149Z,22.54
2022-08-05T00:14:27.561Z,22.49
2022-08-05T00:19:33.145Z,22.44
2022-08-05T00:24:35.556Z,22.52
2022-08-05T00:29:38.161Z,22.68
2022-08-05T00:34:54.675Z,22.80
2022-08-05T00:40:02.227Z,22.87
2022-08-05T00:45:08.501Z,22.88
2022-08-05T00:50:12.975Z,22.90
2022-08-05T00:55:15.086Z,22.85
2022-08-05T01:00:16.959Z,22.65
2022-08-05T01:05:18.666Z,22.52
2022-08-05T01:10:22.151Z,22.57
2022-08-05T01:15:36.158Z,22.40
2022-08-05T01:20:46.145Z,22.51
2022-08-05T01:26:19.765Z,22.44
2022-08-05T01:31:34.520Z,22.47
2022-08-05T01:37:18.219Z,22.38
2022-08-05T01:42:26.944Z,22.29
2022-08-05T01:47:38.737Z,22.33
2022-08-05T01:52:41.463Z,22.37
2022-08-05T01:58:18.780Z,22.31
2022-08-05T02:03:16.422Z,21.74
2022-08-05T02:08:31.320Z,22.23
2022-08-05T02:13:48.924Z,21.88
2022-08-05T02:18:58.938Z,21.90
2022-08-05T02:24:06.368Z,21.93
2022-08-05T02:29:08.780Z,22.01
2022-08-05T02:34:22.991Z,21.67
2022-08-05T02:39:24.554Z,21.57
2022-08-05T02:44:26.107Z,21.74
2022-08-05T02:49:35.715Z,21.90
2022-08-05T02:54:41.200Z,21.86
2022-08-05T02:59:50.697Z,21.74
2022-08-05T03:04:54.182Z,21.60
2022-08-05T03:09:57.286Z,21.95
2022-08-05T03:14:58.840Z,21.84
2022-08-05T03:20:00.384Z,21.93
2022-08-05T03:25:32.553Z,21.90
2022-08-05T03:30:30.156Z,22.00
2022-08-05T03:35:40.707Z,22.04
2022-08-05T03:40:45.163Z,22.12
2022-08-05T03:45:57.930Z,22.11
2022-08-05T03:52:39.019Z,21.76
2022-08-05T03:56:50.211Z,22.16
2022-08-05T04:01:53.736Z,22.13
2022-08-05T04:07:00.685Z,22.07
2022-08-05T04:12:02.264Z,22.13
2022-08-05T04:17:03.791Z,22.14
2022-08-05T04:22:11.675Z,22.06
2022-08-05T04:27:13.604Z,22.33
2022-08-05T04:32:20.009Z,22.16
2022-08-05T04:38:02.386Z,22.43
2022-08-05T04:42:54.467Z,22.29
2022-08-05T04:48:10.323Z,22.46
2022-08-05T04:53:20.282Z,22.58
2022-08-05T04:58:22.303Z,22.67
2022-08-05T05:03:23.822Z,22.62
2022-08-05T05:08:30.066Z,22.75
2022-08-05T05:13:43.376Z,22.63
2022-08-05T05:19:02.500Z,22.21
2022-08-05T05:24:08.936Z,22.26
2022-08-05T05:29:14.898Z,22.18
2022-08-05T05:34:21.187Z,22.28
2022-08-05T05:39:31.718Z,22.27
2022-08-05T05:44:42.891Z,22.61
2022-08-05T05:49:44.732Z,22.40
2022-08-05T05:54:54.160Z,22.20
2022-08-05T05:59:56.048Z,22.19
2022-08-05T06:04:58.599Z,22.48
2022-08-05T06:10:08.315Z,22.58
2022-08-05T06:15:23.761Z,22.71
2022-08-05T06:20:25.892Z,22.68
2022-08-05T06:26:12.181Z,22.63
2022-08-05T06:30:51.752Z,22.01
2022-08-05T06:36:07.410Z,22.42
2022-08-05T06:41:11.652Z,22.45
2022-08-05T06:46:13.349Z,22.75
2022-08-05T06:51:22.821Z,22.83
2022-08-05T06:56:33.336Z,22.70
2022-08-05T07:01:36.680Z,22.72
2022-08-05T07:06:38.369Z,22.80
2022-08-05T07:11:40.132Z,22.98
2022-08-05T07:17:59.793Z,23.03
2022-08-05T07:22:11.854Z,23.19
2022-08-05T07:27:17.378Z,23.36
2022-08-05T07:32:18.892Z,23.48
2022-08-05T07:37:29.081Z,23.54
2022-08-05T07:42:37.738Z,23.76
2022-08-05T07:47:42.415Z,23.96
2022-08-05T07:52:44.727Z,24.20
2022-08-05T07:57:57.442Z,24.29
2022-08-05T08:03:14.995Z,24.56
2022-08-05T08:08:20.096Z,24.51
2022-08-05T08:13:28.867Z,24.70
2022-08-05T08:18:30.790Z,24.59
2022-08-05T08:24:01.329Z,24.59
2022-08-05T08:28:59.200Z,24.55
2022-08-05T08:34:01.516Z,24.36
2022-08-05T08:39:03.119Z,24.64
2022-08-05T08:45:20.485Z,24.91
2022-08-05T08:50:07.764Z,24.95
2022-08-05T08:54:50.572Z,24.77
2022-08-05T08:59:52.070Z,25.09
2022-08-05T09:05:16.430Z,25.26
2022-08-05T09:10:19.512Z,24.80
2022-08-05T09:15:22.009Z,24.97
2022-08-05T09:20:37.359Z,25.11
2022-08-05T09:26:01.346Z,25.08
2022-08-05T09:32:08.522Z,25.08
2022-08-05T09:36:45.827Z,25.39
2022-08-05T09:42:04.662Z,25.58
2022-08-05T09:47:10.386Z,25.58
2022-08-05T09:52:22.289Z,25.55
2022-08-05T09:57:45.938Z,25.83
2022-08-05T10:02:50.161Z,25.92
2022-08-05T10:08:35.740Z,25.89
2022-08-05T10:13:43.840Z,26.07
2022-08-05T10:18:48.294Z,25.91
2022-08-05T10:23:55.536Z,26.17
2022-08-05T10:29:00.981Z,25.90
2022-08-05T10:34:02.478Z,26.22
2022-08-05T10:39:15.026Z,26.28
2022-08-05T10:44:26.702Z,25.54
2022-08-05T10:49:33.515Z,25.60
2022-08-05T10:55:04.606Z,25.56
2022-08-05T11:00:22.902Z,25.77
2022-08-05T11:05:28.830Z,25.43
2022-08-05T11:10:31.291Z,25.82
2022-08-05T11:16:01.193Z,25.92
2022-08-05T11:20:57.394Z,25.99
2022-08-05T11:26:06.005Z,26.04
2022-08-05T11:31:09.968Z,26.03
2022-08-05T11:36:11.840Z,25.90
2022-08-05T11:41:54.751Z,25.89
2022-08-05T11:47:09.925Z,25.57
2022-08-05T11:52:11.271Z,25.45
2022-08-05T11:57:25.825Z,24.70
2022-08-05T12:02:32.990Z,23.60
2022-08-05T12:08:08.669Z,23.35
2022-08-05T12:13:03.899Z,22.51
2022-08-05T12:18:32.723Z,22.11
2022-08-05T12:23:34.728Z,21.64
2022-08-05T12:28:44.650Z,21.44
2022-08-05T12:33:48.193Z,21.45
2022-08-05T12:38:49.736Z,21.74
2022-08-05T12:43:56.455Z,21.80
2022-08-05T12:49:01.688Z,22.14
2022-08-05T12:54:23.667Z,22.45
2022-08-05T13:00:08.817Z,22.23
2022-08-05T13:04:54.933Z,22.42
2022-08-05T13:09:58.899Z,22.94
2022-08-05T13:15:05.502Z,22.82
2022-08-05T13:20:11.495Z,22.37
2022-08-05T13:25:19.283Z,22.03
2022-08-05T13:30:34.352Z,21.70
2022-08-05T13:35:50.449Z,21.66
2022-08-05T13:40:53.309Z,21.10
2022-08-05T13:45:55.139Z,21.32
2022-08-05T13:51:05.436Z,21.70
2022-08-05T13:56:18.959Z,21.89
2022-08-05T14:01:24.698Z,22.41
2022-08-05T14:06:37.650Z,22.68
2022-08-05T14:12:00.349Z,22.62
2022-08-05T14:17:03.200Z,21.70
2022-08-05T14:22:09.178Z,20.80
2022-08-05T14:27:17.550Z,19.88
2022-08-05T14:32:26.966Z,19.91
2022-08-05T14:37:44.810Z,19.83
2022-08-05T14:42:50.439Z,19.96
2022-08-05T14:48:05.803Z,19.93
2022-08-05T14:53:10.215Z,20.05
2022-08-05T14:58:13.850Z,20.28
2022-08-05T15:03:15.664Z,20.48
2022-08-05T15:08:57.657Z,20.81
2022-08-05T15:13:46.078Z,21.15
2022-08-05T15:18:52.513Z,21.10
2022-08-05T15:23:54.252Z,21.26
2022-08-05T15:28:56.072Z,21.27
2022-08-05T15:34:18.691Z,21.41
2022-08-05T15:40:59.732Z,21.40
2022-08-05T15:44:43.569Z,20.98
2022-08-05T15:49:56.682Z,21.28
2022-08-05T15:55:00.551Z,21.35
2022-08-05T16:00:06.990Z,21.04
2022-08-05T16:05:09.731Z,20.86
2022-08-05T16:10:12.795Z,21.22
2022-08-05T16:15:18.558Z,21.20
2022-08-05T16:20:20.392Z,21.27
2022-08-05T16:25:21.909Z,21.25
2022-08-05T16:30:34.272Z,20.61
2022-08-05T16:35:42.457Z,20.50
2022-08-05T16:40:48.085Z,20.48
2022-08-05T16:46:07.856Z,20.58
2022-08-05T16:51:15.794Z,20.33
2022-08-05T16:56:17.496Z,20.26
2022-08-05T17:01:19.201Z,20.30
2022-08-05T17:06:20.852Z,20.19
2022-08-05T17:11:26.378Z,20.07
2022-08-05T17:16:33.054Z,19.97
2022-08-05T17:21:36.551Z,19.84
2022-08-05T17:26:39.079Z,19.87
2022-08-05T17:31:58.448Z,19.69
2022-08-05T17:37:00.766Z,19.78
2022-08-05T17:42:19.889Z,19.84
2022-08-05T17:47:23.010Z,19.85
2022-08-05T17:52:25.408Z,19.74
2022-08-05T17:57:28.117Z,20.04
2022-08-05T18:02:29.695Z,20.35
2022-08-05T18:07:41.010Z,20.33
2022-08-05T18:12:43.661Z,20.23
2022-08-05T18:17:59.553Z,20.31
2022-08-05T18:23:11.840Z,20.29
2022-08-05T18:28:16.060Z,19.95
2022-08-05T18:33:22.673Z,19.69
2022-08-05T18:38:26.468Z,19.76
2022-08-05T18:43:31.403Z,19.54
2022-08-05T18:48:41.623Z,19.51
2022-08-05T18:53:45.880Z,19.43
2022-08-05T18:58:54.825Z,19.29
2022-08-05T19:04:02.223Z,19.24
2022-08-05T19:09:07.089Z,18.98
2022-08-05T19:14:59.466Z,19.06
2022-08-05T19:19:30.662Z,19.06
2022-08-05T19:24:34.834Z,19.04
2022-08-05T19:29:36.718Z,18.87
2022-08-05T19:34:40.487Z,19.02
2022-08-05T19:39:45.978Z,19.02
2022-08-05T19:44:52.704Z,19.15
2022-08-05T19:50:00.788Z,19.11
2022-08-05T19:55:06.842Z,19.50
2022-08-05T20:00:10.838Z,19.34
2022-08-05T20:05:16.716Z,19.41
2022-08-05T20:10:26.186Z,19.30
2022-08-05T20:15:52.220Z,18.92
2022-08-05T20:20:50.720Z,18.87
2022-08-05T20:25:52.542Z,18.80
2022-08-05T20:30:55.119Z,18.74
2022-08-05T20:35:56.785Z,18.87
2022-08-05T20:40:59.848Z,18.90
2022-08-05T20:46:06.815Z,18.96
2022-08-05T20:51:08.518Z,19.03
2022-08-05T20:56:10.081Z,19.09
2022-08-05T21:01:11.653Z,18.92
2022-08-05T21:06:27.915Z,19.09
2022-08-05T21:12:09.643Z,19.42
2022-08-05T21:16:51.724Z,19.37
2022-08-05T21:21:53.297Z,19.37
2022-08-05T21:26:58.224Z,19.70
2022-08-05T21:32:03.250Z,19.84
2022-08-05T21:37:05.033Z,19.80
2022-08-05T21:42:06.974Z,19.99
2022-08-05T21:47:56.526Z,19.67
2022-08-05T21:52:49.879Z,19.47
2022-08-05T21:57:51.829Z,19.65
2022-08-05T22:02:55.164Z,19.58
2022-08-05T22:07:58.978Z,19.40
2022-08-05T22:14:05.061Z,19.42
2022-08-05T22:18:25.854Z,19.36
2022-08-05T22:24:03.201Z,19.11
2022-08-05T22:29:07.447Z,18.85
2022-08-05T22:34:08.983Z,19.03
2022-08-05T22:39:16.936Z,18.72
2022-08-05T22:44:22.994Z,18.98
2022-08-05T22:50:17.760Z,19.02
2022-08-05T22:54:48.749Z,19.21
2022-08-05T22:59:54.151Z,18.89
2022-08-05T23:04:55.955Z,18.84
2022-08-05T23:10:02.009Z,18.61
2022-08-05T23:15:09.090Z,18.96
2022-08-05T23:20:17.625Z,18.90
2022-08-05T23:25:51.329Z,18.79
2022-08-05T23:30:43.754Z,19.04
2022-08-05T23:35:45.566Z,18.66
2022-08-05T23:40:49.577Z,18.83
2022-08-05T23:45:51.795Z,18.62
2022-08-05T23:50:53.303Z,18.76
2022-08-05T23:55:54.819Z,18.92
